sensor_id;sensor_type;location;lat;lon;timestamp;P1;durP1;ratioP1;P2;durP2;ratioP2
56537;SDS011;42435;53.292;6.000;2022-08-04T00:01:08;6.68;;;2.13;;
56537;SDS011;42435;53.292;6.000;2022-08-04T00:03:50;3.58;;;2.10;;
56537;SDS011;42435;53.292;6.000;2022-08-04T00:06:29;6.03;;;2.33;;
56537;SDS011;42435;53.292;6.000;2022-08-04T00:09:12;6.85;;;2.30;;
56537;SDS011;42435;53.292;6.000;2022-08-04T00:12:00;5.28;;;2.15;;
56537;SDS011;42435;53.292;6.000;2022-08-04T00:14:29;3.80;;;2.35;;
56537;SDS011;42435;53.292;6.000;2022-08-04T00:17:02;5.18;;;2.17;;
56537;SDS011;42435;53.292;6.000;2022-08-04T00:19:31;4.82;;;2.00;;
56537;SDS011;42435;53.292;6.000;2022-08-04T00:22:05;7.30;;;1.95;;
56537;SDS011;42435;53.292;6.000;2022-08-04T00:24:32;8.93;;;2.38;;
56537;SDS011;42435;53.292;6.000;2022-08-04T00:26:59;5.82;;;1.90;;
56537;SDS011;42435;53.292;6.000;2022-08-04T00:29:28;6.32;;;2.38;;
56537;SDS011;42435;53.292;6.000;2022-08-04T00:31:54;3.67;;;2.25;;
56537;SDS011;42435;53.292;6.000;2022-08-04T00:34:20;5.55;;;1.63;;
56537;SDS011;42435;53.292;6.000;2022-08-04T00:36:51;4.45;;;1.60;;
56537;SDS011;42435;53.292;6.000;2022-08-04T00:39:18;5.78;;;2.17;;
56537;SDS011;42435;53.292;6.000;2022-08-04T00:50:05;4.57;;;2.05;;
56537;SDS011;42435;53.292;6.000;2022-08-04T01:01:06;2.78;;;1.77;;
56537;SDS011;42435;53.292;6.000;2022-08-04T01:06:42;4.38;;;2.28;;
56537;SDS011;42435;53.292;6.000;2022-08-04T01:15:03;7.53;;;2.10;;
56537;SDS011;42435;53.292;6.000;2022-08-04T01:20:16;5.90;;;2.38;;
56537;SDS011;42435;53.292;6.000;2022-08-04T01:22:49;9.25;;;2.30;;
56537;SDS011;42435;53.292;6.000;2022-08-04T01:30:53;4.82;;;2.70;;
56537;SDS011;42435;53.292;6.000;2022-08-04T01:33:22;4.78;;;2.10;;
56537;SDS011;42435;53.292;6.000;2022-08-04T01:35:56;4.93;;;2.60;;
56537;SDS011;42435;53.292;6.000;2022-08-04T01:38:33;4.50;;;1.95;;
56537;SDS011;42435;53.292;6.000;2022-08-04T01:41:05;4.45;;;1.95;;
56537;SDS011;42435;53.292;6.000;2022-08-04T01:43:39;6.28;;;2.30;;
56537;SDS011;42435;53.292;6.000;2022-08-04T01:46:06;4.23;;;2.00;;
56537;SDS011;42435;53.292;6.000;2022-08-04T01:48:37;3.33;;;2.00;;
56537;SDS011;42435;53.292;6.000;2022-08-04T01:51:05;5.15;;;2.05;;
56537;SDS011;42435;53.292;6.000;2022-08-04T01:53:32;3.20;;;2.00;;
56537;SDS011;42435;53.292;6.000;2022-08-04T01:56:03;5.68;;;2.42;;
56537;SDS011;42435;53.292;6.000;2022-08-04T01:58:31;2.80;;;1.80;;
56537;SDS011;42435;53.292;6.000;2022-08-04T02:03:33;4.22;;;2.55;;
56537;SDS011;42435;53.292;6.000;2022-08-04T02:09:03;5.50;;;2.50;;
56537;SDS011;42435;53.292;6.000;2022-08-04T02:11:40;5.25;;;2.42;;
56537;SDS011;42435;53.292;6.000;2022-08-04T02:14:23;7.68;;;2.55;;
56537;SDS011;42435;53.292;6.000;2022-08-04T02:17:09;5.10;;;2.38;;
56537;SDS011;42435;53.292;6.000;2022-08-04T02:22:18;6.25;;;2.35;;
56537;SDS011;42435;53.292;6.000;2022-08-04T02:24:48;3.20;;;1.70;;
56537;SDS011;42435;53.292;6.000;2022-08-04T02:27:15;3.90;;;1.90;;
56537;SDS011;42435;53.292;6.000;2022-08-04T02:29:57;6.63;;;2.30;;
56537;SDS011;42435;53.292;6.000;2022-08-04T02:32:31;5.60;;;2.42;;
56537;SDS011;42435;53.292;6.000;2022-08-04T02:35:07;5.38;;;2.25;;
56537;SDS011;42435;53.292;6.000;2022-08-04T02:38:00;5.90;;;2.38;;
56537;SDS011;42435;53.292;6.000;2022-08-04T02:40:36;6.05;;;2.60;;
56537;SDS011;42435;53.292;6.000;2022-08-04T02:43:04;5.80;;;2.67;;
56537;SDS011;42435;53.292;6.000;2022-08-04T02:45:35;6.03;;;3.50;;
56537;SDS011;42435;53.292;6.000;2022-08-04T02:48:02;7.47;;;2.55;;
56537;SDS011;42435;53.292;6.000;2022-08-04T02:50:29;3.97;;;2.83;;
56537;SDS011;42435;53.292;6.000;2022-08-04T02:52:58;5.95;;;2.20;;
56537;SDS011;42435;53.292;6.000;2022-08-04T02:55:26;6.05;;;2.20;;
56537;SDS011;42435;53.292;6.000;2022-08-04T02:57:53;4.88;;;1.77;;
56537;SDS011;42435;53.292;6.000;2022-08-04T03:00:21;4.88;;;1.92;;
56537;SDS011;42435;53.292;6.000;2022-08-04T03:02:58;4.53;;;1.80;;
56537;SDS011;42435;53.292;6.000;2022-08-04T03:05:30;4.93;;;1.83;;
56537;SDS011;42435;53.292;6.000;2022-08-04T03:08:22;4.38;;;2.00;;
56537;SDS011;42435;53.292;6.000;2022-08-04T03:17:08;3.33;;;1.95;;
56537;SDS011;42435;53.292;6.000;2022-08-04T03:25:58;2.83;;;1.30;;
56537;SDS011;42435;53.292;6.000;2022-08-04T03:34:10;3.78;;;1.58;;
56537;SDS011;42435;53.292;6.000;2022-08-04T03:37:07;5.15;;;2.10;;
56537;SDS011;42435;53.292;6.000;2022-08-04T03:51:11;8.27;;;2.30;;
56537;SDS011;42435;53.292;6.000;2022-08-04T03:57:12;5.75;;;2.22;;
56537;SDS011;42435;53.292;6.000;2022-08-04T04:00:19;6.47;;;2.88;;
56537;SDS011;42435;53.292;6.000;2022-08-04T04:14:06;6.88;;;2.08;;
56537;SDS011;42435;53.292;6.000;2022-08-04T04:19:39;5.10;;;2.50;;
56537;SDS011;42435;53.292;6.000;2022-08-04T04:22:23;4.50;;;1.75;;
56537;SDS011;42435;53.292;6.000;2022-08-04T04:28:04;4.00;;;1.55;;
56537;SDS011;42435;53.292;6.000;2022-08-04T04:34:13;4.75;;;2.22;;
56537;SDS011;42435;53.292;6.000;2022-08-04T04:36:58;4.65;;;2.30;;
56537;SDS011;42435;53.292;6.000;2022-08-04T04:42:30;4.50;;;1.85;;
56537;SDS011;42435;53.292;6.000;2022-08-04T04:47:41;4.10;;;1.50;;
56537;SDS011;42435;53.292;6.000;2022-08-04T04:53:32;2.67;;;1.38;;
56537;SDS011;42435;53.292;6.000;2022-08-04T04:56:16;4.65;;;1.45;;
56537;SDS011;42435;53.292;6.000;2022-08-04T04:58:53;2.92;;;1.70;;
56537;SDS011;42435;53.292;6.000;2022-08-04T05:01:45;3.45;;;1.90;;
56537;SDS011;42435;53.292;6.000;2022-08-04T05:09:59;6.00;;;2.40;;
56537;SDS011;42435;53.292;6.000;2022-08-04T05:15:30;4.72;;;2.47;;
56537;SDS011;42435;53.292;6.000;2022-08-04T05:18:00;6.60;;;2.80;;
56537;SDS011;42435;53.292;6.000;2022-08-04T05:20:28;6.50;;;2.30;;
56537;SDS011;42435;53.292;6.000;2022-08-04T05:25:43;8.60;;;2.20;;
56537;SDS011;42435;53.292;6.000;2022-08-04T05:28:19;6.57;;;2.55;;
56537;SDS011;42435;53.292;6.000;2022-08-04T05:30:49;7.07;;;3.08;;
56537;SDS011;42435;53.292;6.000;2022-08-04T05:33:37;6.38;;;2.67;;
56537;SDS011;42435;53.292;6.000;2022-08-04T05:36:38;6.13;;;2.85;;
56537;SDS011;42435;53.292;6.000;2022-08-04T05:39:16;8.73;;;2.40;;
56537;SDS011;42435;53.292;6.000;2022-08-04T05:41:45;5.80;;;2.40;;
56537;SDS011;42435;53.292;6.000;2022-08-04T05:44:17;5.43;;;3.13;;
56537;SDS011;42435;53.292;6.000;2022-08-04T05:46:44;4.53;;;2.40;;
56537;SDS011;42435;53.292;6.000;2022-08-04T05:49:13;6.50;;;2.85;;
56537;SDS011;42435;53.292;6.000;2022-08-04T05:51:42;10.70;;;2.95;;
56537;SDS011;42435;53.292;6.000;2022-08-04T05:54:09;8.43;;;2.75;;
56537;SDS011;42435;53.292;6.000;2022-08-04T05:56:35;6.63;;;2.60;;
56537;SDS011;42435;53.292;6.000;2022-08-04T05:59:02;6.35;;;2.17;;
56537;SDS011;42435;53.292;6.000;2022-08-04T06:01:32;6.57;;;3.05;;
56537;SDS011;42435;53.292;6.000;2022-08-04T06:04:00;5.00;;;2.50;;
56537;SDS011;42435;53.292;6.000;2022-08-04T06:06:29;4.90;;;2.58;;
56537;SDS011;42435;53.292;6.000;2022-08-04T06:08:55;5.70;;;3.40;;
56537;SDS011;42435;53.292;6.000;2022-08-04T06:11:25;4.85;;;2.03;;
56537;SDS011;42435;53.292;6.000;2022-08-04T06:13:53;5.85;;;2.45;;
56537;SDS011;42435;53.292;6.000;2022-08-04T06:16:33;4.30;;;1.83;;
56537;SDS011;42435;53.292;6.000;2022-08-04T06:19:05;5.35;;;2.20;;
56537;SDS011;42435;53.292;6.000;2022-08-04T06:21:40;4.32;;;2.72;;
56537;SDS011;42435;53.292;6.000;2022-08-04T06:24:11;5.93;;;2.45;;
56537;SDS011;42435;53.292;6.000;2022-08-04T06:26:39;10.40;;;2.75;;
56537;SDS011;42435;53.292;6.000;2022-08-04T06:29:07;7.32;;;2.50;;
56537;SDS011;42435;53.292;6.000;2022-08-04T06:31:41;4.70;;;2.80;;
56537;SDS011;42435;53.292;6.000;2022-08-04T06:34:12;6.90;;;2.97;;
56537;SDS011;42435;53.292;6.000;2022-08-04T06:36:40;11.68;;;3.05;;
56537;SDS011;42435;53.292;6.000;2022-08-04T06:39:07;14.35;;;2.65;;
56537;SDS011;42435;53.292;6.000;2022-08-04T06:41:37;13.48;;;4.43;;
56537;SDS011;42435;53.292;6.000;2022-08-04T06:44:05;6.22;;;2.85;;
56537;SDS011;42435;53.292;6.000;2022-08-04T06:46:33;7.85;;;3.10;;
56537;SDS011;42435;53.292;6.000;2022-08-04T06:49:00;13.38;;;3.50;;
56537;SDS011;42435;53.292;6.000;2022-08-04T06:51:27;8.80;;;4.15;;
56537;SDS011;42435;53.292;6.000;2022-08-04T06:53:55;11.60;;;3.40;;
56537;SDS011;42435;53.292;6.000;2022-08-04T06:56:21;11.23;;;3.50;;
56537;SDS011;42435;53.292;6.000;2022-08-04T06:58:49;5.07;;;2.72;;
56537;SDS011;42435;53.292;6.000;2022-08-04T07:01:17;10.43;;;3.13;;
56537;SDS011;42435;53.292;6.000;2022-08-04T07:03:44;6.88;;;3.33;;
56537;SDS011;42435;53.292;6.000;2022-08-04T07:06:11;6.35;;;3.17;;
56537;SDS011;42435;53.292;6.000;2022-08-04T07:08:37;6.22;;;2.65;;
56537;SDS011;42435;53.292;6.000;2022-08-04T07:11:06;6.57;;;3.47;;
56537;SDS011;42435;53.292;6.000;2022-08-04T07:13:33;3.55;;;2.50;;
56537;SDS011;42435;53.292;6.000;2022-08-04T07:16:00;8.15;;;3.22;;
56537;SDS011;42435;53.292;6.000;2022-08-04T07:18:26;6.80;;;2.95;;
56537;SDS011;42435;53.292;6.000;2022-08-04T07:20:54;7.25;;;3.05;;
56537;SDS011;42435;53.292;6.000;2022-08-04T07:23:25;8.10;;;3.08;;
56537;SDS011;42435;53.292;6.000;2022-08-04T07:25:52;5.78;;;3.08;;
56537;SDS011;42435;53.292;6.000;2022-08-04T07:28:22;6.53;;;3.30;;
56537;SDS011;42435;53.292;6.000;2022-08-04T07:30:49;5.50;;;3.08;;
56537;SDS011;42435;53.292;6.000;2022-08-04T07:33:17;7.93;;;3.40;;
56537;SDS011;42435;53.292;6.000;2022-08-04T07:35:48;7.05;;;2.80;;
56537;SDS011;42435;53.292;6.000;2022-08-04T07:38:16;8.98;;;3.08;;
56537;SDS011;42435;53.292;6.000;2022-08-04T07:40:41;4.55;;;3.28;;
56537;SDS011;42435;53.292;6.000;2022-08-04T07:43:16;5.40;;;3.08;;
56537;SDS011;42435;53.292;6.000;2022-08-04T07:45:42;8.88;;;3.72;;
56537;SDS011;42435;53.292;6.000;2022-08-04T07:48:17;10.32;;;3.80;;
56537;SDS011;42435;53.292;6.000;2022-08-04T07:50:42;9.57;;;3.50;;
56537;SDS011;42435;53.292;6.000;2022-08-04T07:53:10;6.25;;;3.33;;
56537;SDS011;42435;53.292;6.000;2022-08-04T07:55:37;6.28;;;3.10;;
56537;SDS011;42435;53.292;6.000;2022-08-04T07:58:05;7.68;;;4.00;;
56537;SDS011;42435;53.292;6.000;2022-08-04T08:00:31;5.28;;;2.65;;
56537;SDS011;42435;53.292;6.000;2022-08-04T08:02:57;5.65;;;3.17;;
56537;SDS011;42435;53.292;6.000;2022-08-04T08:05:23;6.85;;;2.42;;
56537;SDS011;42435;53.292;6.000;2022-08-04T08:07:50;6.68;;;3.03;;
56537;SDS011;42435;53.292;6.000;2022-08-04T08:10:16;8.10;;;3.10;;
56537;SDS011;42435;53.292;6.000;2022-08-04T08:12:42;4.90;;;2.78;;
56537;SDS011;42435;53.292;6.000;2022-08-04T08:15:10;7.43;;;2.67;;
56537;SDS011;42435;53.292;6.000;2022-08-04T08:17:39;7.30;;;2.42;;
56537;SDS011;42435;53.292;6.000;2022-08-04T08:20:05;7.95;;;3.00;;
56537;SDS011;42435;53.292;6.000;2022-08-04T08:22:35;8.93;;;3.03;;
56537;SDS011;42435;53.292;6.000;2022-08-04T08:25:02;6.43;;;2.70;;
56537;SDS011;42435;53.292;6.000;2022-08-04T08:27:31;5.90;;;2.67;;
56537;SDS011;42435;53.292;6.000;2022-08-04T08:29:57;6.28;;;2.15;;
56537;SDS011;42435;53.292;6.000;2022-08-04T08:32:23;5.05;;;1.95;;
56537;SDS011;42435;53.292;6.000;2022-08-04T08:34:49;5.25;;;2.55;;
56537;SDS011;42435;53.292;6.000;2022-08-04T08:37:34;7.22;;;2.35;;
56537;SDS011;42435;53.292;6.000;2022-08-04T08:48:54;4.72;;;1.55;;
56537;SDS011;42435;53.292;6.000;2022-08-04T08:51:39;3.92;;;1.40;;
56537;SDS011;42435;53.292;6.000;2022-08-04T09:00:49;4.68;;;1.75;;
56537;SDS011;42435;53.292;6.000;2022-08-04T09:11:24;2.78;;;1.27;;
56537;SDS011;42435;53.292;6.000;2022-08-04T09:14:00;2.13;;;1.45;;
56537;SDS011;42435;53.292;6.000;2022-08-04T09:19:26;3.00;;;0.80;;
56537;SDS011;42435;53.292;6.000;2022-08-04T09:22:00;3.70;;;1.15;;
56537;SDS011;42435;53.292;6.000;2022-08-04T09:30:04;2.80;;;0.85;;
56537;SDS011;42435;53.292;6.000;2022-08-04T09:38:22;3.33;;;0.95;;
56537;SDS011;42435;53.292;6.000;2022-08-04T09:43:46;1.65;;;0.75;;
56537;SDS011;42435;53.292;6.000;2022-08-04T09:46:27;1.13;;;0.57;;
56537;SDS011;42435;53.292;6.000;2022-08-04T09:49:01;0.88;;;0.57;;
56537;SDS011;42435;53.292;6.000;2022-08-04T09:51:35;1.33;;;0.70;;
56537;SDS011;42435;53.292;6.000;2022-08-04T09:59:35;1.95;;;0.65;;
56537;SDS011;42435;53.292;6.000;2022-08-04T10:02:07;2.22;;;0.70;;
56537;SDS011;42435;53.292;6.000;2022-08-04T10:04:35;2.40;;;0.85;;
56537;SDS011;42435;53.292;6.000;2022-08-04T10:07:18;1.92;;;0.82;;
56537;SDS011;42435;53.292;6.000;2022-08-04T10:15:27;1.75;;;0.90;;
56537;SDS011;42435;53.292;6.000;2022-08-04T10:29:53;1.85;;;0.80;;
56537;SDS011;42435;53.292;6.000;2022-08-04T10:32:10;1.83;;;0.70;;
56537;SDS011;42435;53.292;6.000;2022-08-04T10:34:58;1.23;;;0.60;;
56537;SDS011;42435;53.292;6.000;2022-08-04T10:37:31;1.52;;;0.50;;
56537;SDS011;42435;53.292;6.000;2022-08-04T10:40:16;2.83;;;1.00;;
56537;SDS011;42435;53.292;6.000;2022-08-04T10:48:34;1.35;;;0.80;;
56537;SDS011;42435;53.292;6.000;2022-08-04T10:51:32;1.05;;;0.70;;
56537;SDS011;42435;53.292;6.000;2022-08-04T10:54:26;1.35;;;0.65;;
56537;SDS011;42435;53.292;6.000;2022-08-04T10:57:44;6.25;;;0.82;;
56537;SDS011;42435;53.292;6.000;2022-08-04T11:00:06;3.97;;;1.27;;
56537;SDS011;42435;53.292;6.000;2022-08-04T11:02:50;2.05;;;0.75;;
56537;SDS011;42435;53.292;6.000;2022-08-04T11:05:44;1.92;;;1.00;;
56537;SDS011;42435;53.292;6.000;2022-08-04T11:08:24;2.83;;;1.10;;
56537;SDS011;42435;53.292;6.000;2022-08-04T11:11:53;2.28;;;0.93;;
56537;SDS011;42435;53.292;6.000;2022-08-04T11:19:33;2.45;;;1.00;;
56537;SDS011;42435;53.292;6.000;2022-08-04T11:22:27;3.03;;;1.45;;
56537;SDS011;42435;53.292;6.000;2022-08-04T11:42:35;2.33;;;1.05;;
56537;SDS011;42435;53.292;6.000;2022-08-04T11:45:04;1.08;;;0.70;;
56537;SDS011;42435;53.292;6.000;2022-08-04T11:47:45;1.88;;;0.90;;
56537;SDS011;42435;53.292;6.000;2022-08-04T11:50:24;2.80;;;1.02;;
56537;SDS011;42435;53.292;6.000;2022-08-04T11:53:03;2.00;;;0.55;;
56537;SDS011;42435;53.292;6.000;2022-08-04T11:55:30;3.38;;;1.10;;
56537;SDS011;42435;53.292;6.000;2022-08-04T11:57:57;1.92;;;1.00;;
56537;SDS011;42435;53.292;6.000;2022-08-04T12:00:27;2.08;;;1.00;;
56537;SDS011;42435;53.292;6.000;2022-08-04T12:03:14;2.75;;;0.98;;
56537;SDS011;42435;53.292;6.000;2022-08-04T12:08:48;1.23;;;0.70;;
56537;SDS011;42435;53.292;6.000;2022-08-04T12:14:25;3.53;;;1.27;;
56537;SDS011;42435;53.292;6.000;2022-08-04T12:17:12;1.45;;;0.68;;
56537;SDS011;42435;53.292;6.000;2022-08-04T12:19:50;3.05;;;0.80;;
56537;SDS011;42435;53.292;6.000;2022-08-04T12:22:23;3.55;;;1.10;;
56537;SDS011;42435;53.292;6.000;2022-08-04T12:25:03;3.50;;;1.08;;
56537;SDS011;42435;53.292;6.000;2022-08-04T12:27:34;3.28;;;0.95;;
56537;SDS011;42435;53.292;6.000;2022-08-04T12:30:07;2.27;;;1.00;;
56537;SDS011;42435;53.292;6.000;2022-08-04T12:32:40;2.67;;;0.95;;
56537;SDS011;42435;53.292;6.000;2022-08-04T12:35:35;2.67;;;1.15;;
56537;SDS011;42435;53.292;6.000;2022-08-04T12:38:18;3.63;;;1.25;;
56537;SDS011;42435;53.292;6.000;2022-08-04T12:40:48;5.05;;;1.23;;
56537;SDS011;42435;53.292;6.000;2022-08-04T12:43:23;2.78;;;1.05;;
56537;SDS011;42435;53.292;6.000;2022-08-04T12:45:55;2.50;;;0.95;;
56537;SDS011;42435;53.292;6.000;2022-08-04T12:48:24;2.97;;;1.27;;
56537;SDS011;42435;53.292;6.000;2022-08-04T12:50:52;3.30;;;0.90;;
56537;SDS011;42435;53.292;6.000;2022-08-04T12:53:26;4.55;;;1.50;;
56537;SDS011;42435;53.292;6.000;2022-08-04T12:55:55;4.43;;;1.45;;
56537;SDS011;42435;53.292;6.000;2022-08-04T12:58:22;5.60;;;1.80;;
56537;SDS011;42435;53.292;6.000;2022-08-04T13:00:59;5.43;;;1.85;;
56537;SDS011;42435;53.292;6.000;2022-08-04T13:03:33;9.10;;;2.15;;
56537;SDS011;42435;53.292;6.000;2022-08-04T13:08:29;8.90;;;2.75;;
56537;SDS011;42435;53.292;6.000;2022-08-04T13:11:00;5.85;;;2.08;;
56537;SDS011;42435;53.292;6.000;2022-08-04T13:13:29;7.28;;;2.45;;
56537;SDS011;42435;53.292;6.000;2022-08-04T13:15:59;5.85;;;1.65;;
56537;SDS011;42435;53.292;6.000;2022-08-04T13:18:30;5.70;;;2.03;;
56537;SDS011;42435;53.292;6.000;2022-08-04T13:23:35;5.60;;;1.75;;
56537;SDS011;42435;53.292;6.000;2022-08-04T13:26:02;5.75;;;1.67;;
56537;SDS011;42435;53.292;6.000;2022-08-04T13:28:29;4.70;;;1.50;;
56537;SDS011;42435;53.292;6.000;2022-08-04T13:30:59;6.93;;;2.08;;
56537;SDS011;42435;53.292;6.000;2022-08-04T13:33:30;4.68;;;1.95;;
56537;SDS011;42435;53.292;6.000;2022-08-04T13:35:58;5.30;;;1.75;;
56537;SDS011;42435;53.292;6.000;2022-08-04T13:38:27;7.93;;;2.72;;
56537;SDS011;42435;53.292;6.000;2022-08-04T13:40:55;5.85;;;2.03;;
56537;SDS011;42435;53.292;6.000;2022-08-04T13:43:25;7.88;;;1.95;;
56537;SDS011;42435;53.292;6.000;2022-08-04T13:46:13;5.40;;;1.92;;
56537;SDS011;42435;53.292;6.000;2022-08-04T13:48:42;6.20;;;2.70;;
56537;SDS011;42435;53.292;6.000;2022-08-04T13:51:09;3.25;;;1.50;;
56537;SDS011;42435;53.292;6.000;2022-08-04T13:53:36;3.30;;;1.60;;
56537;SDS011;42435;53.292;6.000;2022-08-04T13:56:08;1.98;;;1.52;;
56537;SDS011;42435;53.292;6.000;2022-08-04T13:58:40;4.22;;;2.13;;
56537;SDS011;42435;53.292;6.000;2022-08-04T14:01:12;4.60;;;2.00;;
56537;SDS011;42435;53.292;6.000;2022-08-04T14:06:24;2.75;;;1.85;;
56537;SDS011;42435;53.292;6.000;2022-08-04T14:09:20;1.60;;;1.25;;
56537;SDS011;42435;53.292;6.000;2022-08-04T14:11:48;3.15;;;1.90;;
56537;SDS011;42435;53.292;6.000;2022-08-04T14:14:25;3.53;;;1.30;;
56537;SDS011;42435;53.292;6.000;2022-08-04T14:16:57;1.38;;;1.08;;
56537;SDS011;42435;53.292;6.000;2022-08-04T14:25:07;2.45;;;0.47;;
56537;SDS011;42435;53.292;6.000;2022-08-04T14:30:30;1.55;;;0.70;;
56537;SDS011;42435;53.292;6.000;2022-08-04T14:35:29;1.25;;;0.70;;
56537;SDS011;42435;53.292;6.000;2022-08-04T14:38:03;3.00;;;0.80;;
56537;SDS011;42435;53.292;6.000;2022-08-04T14:40:38;2.60;;;0.77;;
56537;SDS011;42435;53.292;6.000;2022-08-04T14:43:05;2.58;;;0.98;;
56537;SDS011;42435;53.292;6.000;2022-08-04T14:45:34;2.85;;;0.80;;
56537;SDS011;42435;53.292;6.000;2022-08-04T14:48:04;3.75;;;1.02;;
56537;SDS011;42435;53.292;6.000;2022-08-04T14:53:15;4.65;;;1.13;;
56537;SDS011;42435;53.292;6.000;2022-08-04T14:55:47;2.72;;;0.55;;
56537;SDS011;42435;53.292;6.000;2022-08-04T14:58:22;3.65;;;0.80;;
56537;SDS011;42435;53.292;6.000;2022-08-04T15:00:53;1.48;;;0.80;;
56537;SDS011;42435;53.292;6.000;2022-08-04T15:03:21;1.00;;;0.52;;
56537;SDS011;42435;53.292;6.000;2022-08-04T15:05:51;4.80;;;0.80;;
56537;SDS011;42435;53.292;6.000;2022-08-04T15:08:16;1.70;;;0.73;;
56537;SDS011;42435;53.292;6.000;2022-08-04T15:10:42;1.80;;;0.80;;
56537;SDS011;42435;53.292;6.000;2022-08-04T15:13:09;2.90;;;0.88;;
56537;SDS011;42435;53.292;6.000;2022-08-04T15:15:41;2.17;;;0.70;;
56537;SDS011;42435;53.292;6.000;2022-08-04T15:18:16;3.05;;;1.00;;
56537;SDS011;42435;53.292;6.000;2022-08-04T15:20:42;2.65;;;0.70;;
56537;SDS011;42435;53.292;6.000;2022-08-04T15:23:08;3.03;;;1.17;;
56537;SDS011;42435;53.292;6.000;2022-08-04T15:25:36;3.30;;;0.95;;
56537;SDS011;42435;53.292;6.000;2022-08-04T15:28:05;2.15;;;0.73;;
56537;SDS011;42435;53.292;6.000;2022-08-04T15:30:36;2.65;;;0.95;;
56537;SDS011;42435;53.292;6.000;2022-08-04T15:33:02;2.03;;;0.95;;
56537;SDS011;42435;53.292;6.000;2022-08-04T15:38:02;1.95;;;1.10;;
56537;SDS011;42435;53.292;6.000;2022-08-04T15:46:00;2.67;;;1.00;;
56537;SDS011;42435;53.292;6.000;2022-08-04T15:48:32;1.77;;;0.68;;
56537;SDS011;42435;53.292;6.000;2022-08-04T15:50:59;2.05;;;0.65;;
56537;SDS011;42435;53.292;6.000;2022-08-04T15:53:32;1.38;;;0.90;;
56537;SDS011;42435;53.292;6.000;2022-08-04T15:58:48;2.55;;;0.77;;
56537;SDS011;42435;53.292;6.000;2022-08-04T16:01:26;1.33;;;0.93;;
56537;SDS011;42435;53.292;6.000;2022-08-04T16:03:52;2.78;;;1.17;;
56537;SDS011;42435;53.292;6.000;2022-08-04T16:08:57;2.00;;;0.90;;
56537;SDS011;42435;53.292;6.000;2022-08-04T16:29:29;1.70;;;0.80;;
56537;SDS011;42435;53.292;6.000;2022-08-04T16:37:41;2.67;;;1.40;;
56537;SDS011;42435;53.292;6.000;2022-08-04T16:43:09;3.33;;;1.17;;
56537;SDS011;42435;53.292;6.000;2022-08-04T16:48:30;2.90;;;0.90;;
56537;SDS011;42435;53.292;6.000;2022-08-04T16:53:46;1.45;;;0.70;;
56537;SDS011;42435;53.292;6.000;2022-08-04T16:56:16;3.22;;;1.05;;
56537;SDS011;42435;53.292;6.000;2022-08-04T16:58:52;2.80;;;1.52;;
56537;SDS011;42435;53.292;6.000;2022-08-04T17:01:33;2.67;;;1.00;;
56537;SDS011;42435;53.292;6.000;2022-08-04T17:04:02;2.60;;;0.82;;
56537;SDS011;42435;53.292;6.000;2022-08-04T17:06:32;3.00;;;1.00;;
56537;SDS011;42435;53.292;6.000;2022-08-04T17:09:12;2.28;;;1.00;;
56537;SDS011;42435;53.292;6.000;2022-08-04T17:11:43;4.82;;;1.25;;
56537;SDS011;42435;53.292;6.000;2022-08-04T17:14:19;2.72;;;1.23;;
56537;SDS011;42435;53.292;6.000;2022-08-04T17:16:59;4.28;;;1.00;;
56537;SDS011;42435;53.292;6.000;2022-08-04T17:19:50;2.50;;;1.00;;
56537;SDS011;42435;53.292;6.000;2022-08-04T17:22:19;1.70;;;0.80;;
56537;SDS011;42435;53.292;6.000;2022-08-04T17:25:11;2.70;;;1.42;;
56537;SDS011;42435;53.292;6.000;2022-08-04T17:28:17;2.67;;;0.98;;
56537;SDS011;42435;53.292;6.000;2022-08-04T17:30:56;1.90;;;1.15;;
56537;SDS011;42435;53.292;6.000;2022-08-04T17:33:33;2.28;;;0.90;;
56537;SDS011;42435;53.292;6.000;2022-08-04T17:36:06;2.10;;;0.88;;
56537;SDS011;42435;53.292;6.000;2022-08-04T17:38:40;3.20;;;1.05;;
56537;SDS011;42435;53.292;6.000;2022-08-04T17:41:20;1.75;;;0.95;;
56537;SDS011;42435;53.292;6.000;2022-08-04T17:46:36;1.60;;;0.73;;
56537;SDS011;42435;53.292;6.000;2022-08-04T17:49:19;1.25;;;0.68;;
56537;SDS011;42435;53.292;6.000;2022-08-04T17:52:20;2.28;;;1.10;;
56537;SDS011;42435;53.292;6.000;2022-08-04T17:54:49;3.17;;;0.93;;
56537;SDS011;42435;53.292;6.000;2022-08-04T17:57:38;1.92;;;0.70;;
56537;SDS011;42435;53.292;6.000;2022-08-04T18:00:10;1.38;;;0.90;;
56537;SDS011;42435;53.292;6.000;2022-08-04T18:02:40;2.25;;;0.73;;
56537;SDS011;42435;53.292;6.000;2022-08-04T18:05:25;3.65;;;1.23;;
56537;SDS011;42435;53.292;6.000;2022-08-04T18:08:10;1.88;;;1.13;;
56537;SDS011;42435;53.292;6.000;2022-08-04T18:10:53;5.60;;;1.45;;
56537;SDS011;42435;53.292;6.000;2022-08-04T18:13:19;2.35;;;1.33;;
56537;SDS011;42435;53.292;6.000;2022-08-04T18:15:47;3.25;;;1.13;;
56537;SDS011;42435;53.292;6.000;2022-08-04T18:18:34;5.00;;;1.38;;
56537;SDS011;42435;53.292;6.000;2022-08-04T18:20:59;3.80;;;1.15;;
56537;SDS011;42435;53.292;6.000;2022-08-04T18:23:28;1.80;;;1.00;;
56537;SDS011;42435;53.292;6.000;2022-08-04T18:25:57;1.67;;;1.10;;
56537;SDS011;42435;53.292;6.000;2022-08-04T18:28:26;4.60;;;1.67;;
56537;SDS011;42435;53.292;6.000;2022-08-04T18:30:52;2.95;;;1.42;;
56537;SDS011;42435;53.292;6.000;2022-08-04T18:33:17;5.00;;;1.65;;
56537;SDS011;42435;53.292;6.000;2022-08-04T18:35:43;3.42;;;1.40;;
56537;SDS011;42435;53.292;6.000;2022-08-04T18:38:08;2.03;;;1.83;;
56537;SDS011;42435;53.292;6.000;2022-08-04T18:40:34;2.33;;;1.30;;
56537;SDS011;42435;53.292;6.000;2022-08-04T18:42:59;4.43;;;1.48;;
56537;SDS011;42435;53.292;6.000;2022-08-04T18:45:25;1.70;;;1.38;;
56537;SDS011;42435;53.292;6.000;2022-08-04T18:47:54;4.30;;;1.40;;
56537;SDS011;42435;53.292;6.000;2022-08-04T18:50:20;6.55;;;1.80;;
56537;SDS011;42435;53.292;6.000;2022-08-04T18:52:45;4.72;;;1.70;;
56537;SDS011;42435;53.292;6.000;2022-08-04T18:55:11;3.88;;;1.77;;
56537;SDS011;42435;53.292;6.000;2022-08-04T18:57:40;4.78;;;1.30;;
56537;SDS011;42435;53.292;6.000;2022-08-04T19:00:08;3.30;;;1.70;;
56537;SDS011;42435;53.292;6.000;2022-08-04T19:02:34;4.03;;;1.63;;
56537;SDS011;42435;53.292;6.000;2022-08-04T19:05:03;6.57;;;1.85;;
56537;SDS011;42435;53.292;6.000;2022-08-04T19:07:29;3.38;;;1.58;;
56537;SDS011;42435;53.292;6.000;2022-08-04T19:09:54;2.65;;;1.63;;
56537;SDS011;42435;53.292;6.000;2022-08-04T19:12:20;2.95;;;1.92;;
56537;SDS011;42435;53.292;6.000;2022-08-04T19:14:48;2.92;;;1.40;;
56537;SDS011;42435;53.292;6.000;2022-08-04T19:17:14;3.25;;;1.42;;
56537;SDS011;42435;53.292;6.000;2022-08-04T19:19:39;3.80;;;1.65;;
56537;SDS011;42435;53.292;6.000;2022-08-04T19:22:07;5.38;;;2.25;;
56537;SDS011;42435;53.292;6.000;2022-08-04T19:24:33;2.33;;;1.67;;
56537;SDS011;42435;53.292;6.000;2022-08-04T19:26:59;5.47;;;1.80;;
56537;SDS011;42435;53.292;6.000;2022-08-04T19:29:26;3.08;;;1.42;;
56537;SDS011;42435;53.292;6.000;2022-08-04T19:31:52;2.83;;;1.50;;
56537;SDS011;42435;53.292;6.000;2022-08-04T19:34:17;4.55;;;1.58;;
56537;SDS011;42435;53.292;6.000;2022-08-04T19:36:44;3.60;;;1.30;;
56537;SDS011;42435;53.292;6.000;2022-08-04T19:39:09;3.90;;;1.65;;
56537;SDS011;42435;53.292;6.000;2022-08-04T19:41:35;1.80;;;1.20;;
56537;SDS011;42435;53.292;6.000;2022-08-04T19:44:04;2.63;;;1.30;;
56537;SDS011;42435;53.292;6.000;2022-08-04T19:46:30;3.92;;;1.38;;
56537;SDS011;42435;53.292;6.000;2022-08-04T19:48:57;7.63;;;1.50;;
56537;SDS011;42435;53.292;6.000;2022-08-04T19:51:22;2.35;;;1.20;;
56537;SDS011;42435;53.292;6.000;2022-08-04T19:53:48;3.25;;;1.30;;
56537;SDS011;42435;53.292;6.000;2022-08-04T19:56:14;3.70;;;1.40;;
56537;SDS011;42435;53.292;6.000;2022-08-04T19:58:41;1.98;;;1.40;;
56537;SDS011;42435;53.292;6.000;2022-08-04T20:01:08;4.93;;;1.05;;
56537;SDS011;42435;53.292;6.000;2022-08-04T20:03:34;2.85;;;0.88;;